sensor_id;sensor_type;location;lat;lon;timestamp;P1;durP1;ratioP1;P2;durP2;ratioP2
31974;SDS011;18500;43.618;1.474;2023-12-22T00:01:28;545.25;;;508.50;;
31974;SDS011;18500;43.618;1.474;2023-12-22T00:03:54;637.03;;;589.90;;
31974;SDS011;18500;43.618;1.474;2023-12-22T00:06:19;658.67;;;612.20;;
31974;SDS011;18500;43.618;1.474;2023-12-22T00:08:45;549.42;;;511.88;;
31974;SDS011;18500;43.618;1.474;2023-12-22T00:11:11;564.08;;;524.70;;
31974;SDS011;18500;43.618;1.474;2023-12-22T00:13:36;701.67;;;646.78;;
31974;SDS011;18500;43.618;1.474;2023-12-22T00:16:02;580.40;;;538.63;;
31974;SDS011;18500;43.618;1.474;2023-12-22T00:18:28;661.42;;;611.75;;
31974;SDS011;18500;43.618;1.474;2023-12-22T00:20:54;671.33;;;622.97;;
31974;SDS011;18500;43.618;1.474;2023-12-22T00:23:19;628.60;;;582.05;;
31974;SDS011;18500;43.618;1.474;2023-12-22T00:25:45;573.10;;;533.13;;
31974;SDS011;18500;43.618;1.474;2023-12-22T00:28:11;591.55;;;549.90;;
31974;SDS011;18500;43.618;1.474;2023-12-22T00:30:36;595.05;;;554.53;;
31974;SDS011;18500;43.618;1.474;2023-12-22T00:33:02;598.53;;;557.33;;
31974;SDS011;18500;43.618;1.474;2023-12-22T00:35:28;580.47;;;540.33;;
31974;SDS011;18500;43.618;1.474;2023-12-22T00:37:53;582.55;;;542.33;;
31974;SDS011;18500;43.618;1.474;2023-12-22T00:40:19;559.55;;;520.53;;
31974;SDS011;18500;43.618;1.474;2023-12-22T00:42:45;669.70;;;619.55;;
31974;SDS011;18500;43.618;1.474;2023-12-22T00:45:10;581.30;;;540.72;;
31974;SDS011;18500;43.618;1.474;2023-12-22T00:47:36;636.80;;;589.20;;
31974;SDS011;18500;43.618;1.474;2023-12-22T00:50:02;535.45;;;499.23;;
31974;SDS011;18500;43.618;1.474;2023-12-22T00:52:29;503.17;;;469.05;;
31974;SDS011;18500;43.618;1.474;2023-12-22T00:54:55;562.90;;;524.13;;
31974;SDS011;18500;43.618;1.474;2023-12-22T00:57:21;581.30;;;537.85;;
31974;SDS011;18500;43.618;1.474;2023-12-22T00:59:47;686.45;;;623.83;;
31974;SDS011;18500;43.618;1.474;2023-12-22T01:02:13;545.22;;;509.17;;
31974;SDS011;18500;43.618;1.474;2023-12-22T01:04:39;639.88;;;596.72;;
31974;SDS011;18500;43.618;1.474;2023-12-22T01:07:07;546.08;;;508.20;;
31974;SDS011;18500;43.618;1.474;2023-12-22T01:09:33;615.78;;;569.58;;
31974;SDS011;18500;43.618;1.474;2023-12-22T01:11:59;531.55;;;497.10;;
31974;SDS011;18500;43.618;1.474;2023-12-22T01:14:27;544.05;;;506.42;;
31974;SDS011;18500;43.618;1.474;2023-12-22T01:16:53;646.60;;;602.58;;
31974;SDS011;18500;43.618;1.474;2023-12-22T01:19:19;545.00;;;509.25;;
31974;SDS011;18500;43.618;1.474;2023-12-22T01:21:44;636.65;;;595.30;;
31974;SDS011;18500;43.618;1.474;2023-12-22T01:24:10;627.80;;;585.97;;
31974;SDS011;18500;43.618;1.474;2023-12-22T01:26:36;635.42;;;593.35;;
31974;SDS011;18500;43.618;1.474;2023-12-22T01:29:01;631.75;;;590.80;;
31974;SDS011;18500;43.618;1.474;2023-12-22T01:31:27;672.63;;;627.35;;
31974;SDS011;18500;43.618;1.474;2023-12-22T01:33:53;599.85;;;560.80;;
31974;SDS011;18500;43.618;1.474;2023-12-22T01:36:18;632.88;;;589.47;;
31974;SDS011;18500;43.618;1.474;2023-12-22T01:38:44;543.83;;;508.02;;
31974;SDS011;18500;43.618;1.474;2023-12-22T01:41:10;591.65;;;550.42;;
31974;SDS011;18500;43.618;1.474;2023-12-22T01:43:35;691.80;;;644.92;;
31974;SDS011;18500;43.618;1.474;2023-12-22T01:46:01;593.92;;;554.20;;
31974;SDS011;18500;43.618;1.474;2023-12-22T01:48:27;685.95;;;639.97;;
31974;SDS011;18500;43.618;1.474;2023-12-22T01:50:55;654.38;;;611.13;;
31974;SDS011;18500;43.618;1.474;2023-12-22T01:53:23;599.38;;;559.58;;
31974;SDS011;18500;43.618;1.474;2023-12-22T01:55:50;530.75;;;496.25;;
31974;SDS011;18500;43.618;1.474;2023-12-22T01:58:18;559.15;;;522.90;;
31974;SDS011;18500;43.618;1.474;2023-12-22T02:00:44;498.25;;;466.63;;
31974;SDS011;18500;43.618;1.474;2023-12-22T02:03:11;594.92;;;556.20;;
31974;SDS011;18500;43.618;1.474;2023-12-22T02:05:37;593.55;;;553.67;;
31974;SDS011;18500;43.618;1.474;2023-12-22T02:08:05;487.80;;;457.30;;
31974;SDS011;18500;43.618;1.474;2023-12-22T02:10:31;687.60;;;640.83;;
31974;SDS011;18500;43.618;1.474;2023-12-22T02:12:56;744.22;;;692.95;;
31974;SDS011;18500;43.618;1.474;2023-12-22T02:15:22;652.95;;;609.20;;
31974;SDS011;18500;43.618;1.474;2023-12-22T02:17:49;615.97;;;573.00;;
31974;SDS011;18500;43.618;1.474;2023-12-22T02:20:21;629.45;;;587.22;;
31974;SDS011;18500;43.618;1.474;2023-12-22T02:22:50;647.25;;;603.72;;
31974;SDS011;18500;43.618;1.474;2023-12-22T02:25:17;648.67;;;604.92;;
31974;SDS011;18500;43.618;1.474;2023-12-22T02:27:53;509.00;;;476.23;;
31974;SDS011;18500;43.618;1.474;2023-12-22T02:30:31;571.25;;;534.22;;
31974;SDS011;18500;43.618;1.474;2023-12-22T02:33:04;604.67;;;564.35;;
31974;SDS011;18500;43.618;1.474;2023-12-22T02:35:32;622.55;;;581.67;;
31974;SDS011;18500;43.618;1.474;2023-12-22T02:38:00;615.72;;;575.25;;
31974;SDS011;18500;43.618;1.474;2023-12-22T02:40:28;687.83;;;642.08;;
31974;SDS011;18500;43.618;1.474;2023-12-22T02:42:54;609.92;;;570.40;;
31974;SDS011;18500;43.618;1.474;2023-12-22T02:45:20;507.10;;;475.58;;
31974;SDS011;18500;43.618;1.474;2023-12-22T02:47:46;696.80;;;648.97;;
31974;SDS011;18500;43.618;1.474;2023-12-22T02:50:13;650.17;;;606.03;;
31974;SDS011;18500;43.618;1.474;2023-12-22T02:52:40;690.13;;;643.55;;
31974;SDS011;18500;43.618;1.474;2023-12-22T02:55:05;631.78;;;591.15;;
31974;SDS011;18500;43.618;1.474;2023-12-22T02:57:31;633.92;;;591.60;;
31974;SDS011;18500;43.618;1.474;2023-12-22T02:59:57;619.00;;;578.00;;
31974;SDS011;18500;43.618;1.474;2023-12-22T03:02:23;610.33;;;566.60;;
31974;SDS011;18500;43.618;1.474;2023-12-22T03:04:49;671.65;;;627.70;;
31974;SDS011;18500;43.618;1.474;2023-12-22T03:07:15;600.78;;;557.10;;
31974;SDS011;18500;43.618;1.474;2023-12-22T03:09:41;548.17;;;513.58;;
31974;SDS011;18500;43.618;1.474;2023-12-22T03:12:08;593.10;;;552.45;;
31974;SDS011;18500;43.618;1.474;2023-12-22T03:14:34;618.08;;;576.58;;
31974;SDS011;18500;43.618;1.474;2023-12-22T03:17:04;765.35;;;705.47;;
31974;SDS011;18500;43.618;1.474;2023-12-22T03:19:31;709.63;;;659.13;;
31974;SDS011;18500;43.618;1.474;2023-12-22T03:21:57;727.90;;;675.05;;
31974;SDS011;18500;43.618;1.474;2023-12-22T03:24:23;742.67;;;688.17;;
31974;SDS011;18500;43.618;1.474;2023-12-22T03:26:50;592.05;;;550.47;;
31974;SDS011;18500;43.618;1.474;2023-12-22T03:29:16;797.92;;;740.25;;
31974;SDS011;18500;43.618;1.474;2023-12-22T03:31:43;732.22;;;679.30;;
31974;SDS011;18500;43.618;1.474;2023-12-22T03:34:09;667.83;;;619.90;;
31974;SDS011;18500;43.618;1.474;2023-12-22T03:36:34;774.80;;;720.35;;
31974;SDS011;18500;43.618;1.474;2023-12-22T03:39:00;715.47;;;663.28;;
31974;SDS011;18500;43.618;1.474;2023-12-22T03:41:27;724.50;;;671.92;;
31974;SDS011;18500;43.618;1.474;2023-12-22T03:43:54;750.72;;;695.78;;
31974;SDS011;18500;43.618;1.474;2023-12-22T03:46:20;786.72;;;728.55;;
31974;SDS011;18500;43.618;1.474;2023-12-22T03:48:45;741.33;;;687.08;;
31974;SDS011;18500;43.618;1.474;2023-12-22T03:51:11;775.50;;;716.97;;
31974;SDS011;18500;43.618;1.474;2023-12-22T03:53:38;734.58;;;675.25;;
31974;SDS011;18500;43.618;1.474;2023-12-22T03:56:04;755.80;;;700.70;;
31974;SDS011;18500;43.618;1.474;2023-12-22T03:58:29;793.78;;;735.63;;
31974;SDS011;18500;43.618;1.474;2023-12-22T04:00:55;720.40;;;668.17;;
31974;SDS011;18500;43.618;1.474;2023-12-22T04:03:21;748.17;;;694.97;;
31974;SDS011;18500;43.618;1.474;2023-12-22T04:05:47;753.67;;;696.22;;
31974;SDS011;18500;43.618;1.474;2023-12-22T04:08:13;743.78;;;690.50;;
31974;SDS011;18500;43.618;1.474;2023-12-22T04:10:38;678.40;;;629.97;;
31974;SDS011;18500;43.618;1.474;2023-12-22T04:13:04;735.53;;;682.10;;
31974;SDS011;18500;43.618;1.474;2023-12-22T04:15:29;689.28;;;641.13;;
31974;SDS011;18500;43.618;1.474;2023-12-22T04:17:55;750.45;;;696.25;;
31974;SDS011;18500;43.618;1.474;2023-12-22T04:20:21;764.53;;;707.20;;
31974;SDS011;18500;43.618;1.474;2023-12-22T04:22:46;758.45;;;705.75;;
31974;SDS011;18500;43.618;1.474;2023-12-22T04:25:12;777.95;;;721.55;;
31974;SDS011;18500;43.618;1.474;2023-12-22T04:27:37;780.58;;;724.55;;
31974;SDS011;18500;43.618;1.474;2023-12-22T04:30:03;761.50;;;705.85;;
31974;SDS011;18500;43.618;1.474;2023-12-22T04:32:29;715.60;;;663.67;;
31974;SDS011;18500;43.618;1.474;2023-12-22T04:34:55;691.88;;;641.95;;
31974;SDS011;18500;43.618;1.474;2023-12-22T04:37:20;743.15;;;688.95;;
31974;SDS011;18500;43.618;1.474;2023-12-22T04:39:46;767.03;;;711.28;;
31974;SDS011;18500;43.618;1.474;2023-12-22T04:42:12;645.08;;;600.13;;
31974;SDS011;18500;43.618;1.474;2023-12-22T04:44:37;728.58;;;676.28;;
31974;SDS011;18500;43.618;1.474;2023-12-22T04:47:03;791.08;;;734.08;;
31974;SDS011;18500;43.618;1.474;2023-12-22T04:49:29;764.15;;;704.90;;
31974;SDS011;18500;43.618;1.474;2023-12-22T04:51:54;734.55;;;680.80;;
31974;SDS011;18500;43.618;1.474;2023-12-22T04:54:20;737.55;;;684.28;;
31974;SDS011;18500;43.618;1.474;2023-12-22T04:56:46;787.05;;;728.33;;
31974;SDS011;18500;43.618;1.474;2023-12-22T04:59:11;731.30;;;677.83;;
31974;SDS011;18500;43.618;1.474;2023-12-22T05:01:37;750.60;;;696.25;;
31974;SDS011;18500;43.618;1.474;2023-12-22T05:04:03;790.05;;;732.47;;
31974;SDS011;18500;43.618;1.474;2023-12-22T05:06:28;730.70;;;677.63;;
31974;SDS011;18500;43.618;1.474;2023-12-22T05:08:54;745.35;;;691.60;;
31974;SDS011;18500;43.618;1.474;2023-12-22T05:11:21;687.85;;;639.03;;
31974;SDS011;18500;43.618;1.474;2023-12-22T05:13:47;835.97;;;774.20;;
31974;SDS011;18500;43.618;1.474;2023-12-22T05:16:13;784.83;;;729.03;;
31974;SDS011;18500;43.618;1.474;2023-12-22T05:18:39;752.60;;;698.13;;
31974;SDS011;18500;43.618;1.474;2023-12-22T05:21:05;779.92;;;724.63;;
31974;SDS011;18500;43.618;1.474;2023-12-22T05:23:31;790.20;;;732.55;;
31974;SDS011;18500;43.618;1.474;2023-12-22T05:25:57;725.20;;;674.65;;
31974;SDS011;18500;43.618;1.474;2023-12-22T05:28:23;764.90;;;711.22;;
31974;SDS011;18500;43.618;1.474;2023-12-22T05:30:49;801.80;;;743.55;;
31974;SDS011;18500;43.618;1.474;2023-12-22T05:33:14;785.15;;;727.08;;
31974;SDS011;18500;43.618;1.474;2023-12-22T05:35:40;779.00;;;724.30;;
31974;SDS011;18500;43.618;1.474;2023-12-22T05:38:06;728.83;;;677.05;;
31974;SDS011;18500;43.618;1.474;2023-12-22T05:40:31;773.53;;;716.85;;
31974;SDS011;18500;43.618;1.474;2023-12-22T05:42:57;835.30;;;775.30;;
31974;SDS011;18500;43.618;1.474;2023-12-22T05:45:23;831.13;;;770.60;;
31974;SDS011;18500;43.618;1.474;2023-12-22T05:47:50;797.63;;;741.70;;
31974;SDS011;18500;43.618;1.474;2023-12-22T05:50:16;776.17;;;720.97;;
31974;SDS011;18500;43.618;1.474;2023-12-22T05:52:42;690.88;;;644.42;;
31974;SDS011;18500;43.618;1.474;2023-12-22T05:55:09;849.22;;;786.70;;
31974;SDS011;18500;43.618;1.474;2023-12-22T05:57:35;876.22;;;811.33;;
31974;SDS011;18500;43.618;1.474;2023-12-22T06:00:01;876.15;;;810.67;;
31974;SDS011;18500;43.618;1.474;2023-12-22T06:02:29;858.78;;;795.35;;
31974;SDS011;18500;43.618;1.474;2023-12-22T06:04:55;870.92;;;806.30;;
31974;SDS011;18500;43.618;1.474;2023-12-22T06:07:21;895.83;;;825.70;;
31974;SDS011;18500;43.618;1.474;2023-12-22T06:09:46;929.33;;;854.65;;
31974;SDS011;18500;43.618;1.474;2023-12-22T06:12:12;883.10;;;814.75;;
31974;SDS011;18500;43.618;1.474;2023-12-22T06:14:37;843.08;;;777.60;;
31974;SDS011;18500;43.618;1.474;2023-12-22T06:17:03;792.30;;;734.25;;
31974;SDS011;18500;43.618;1.474;2023-12-22T06:19:29;845.88;;;780.80;;
31974;SDS011;18500;43.618;1.474;2023-12-22T06:21:55;795.63;;;738.63;;
31974;SDS011;18500;43.618;1.474;2023-12-22T06:24:22;824.75;;;759.35;;
31974;SDS011;18500;43.618;1.474;2023-12-22T06:26:48;829.58;;;767.38;;
31974;SDS011;18500;43.618;1.474;2023-12-22T06:29:14;852.35;;;789.70;;
31974;SDS011;18500;43.618;1.474;2023-12-22T06:31:40;841.03;;;779.70;;
31974;SDS011;18500;43.618;1.474;2023-12-22T06:34:06;830.85;;;770.85;;
31974;SDS011;18500;43.618;1.474;2023-12-22T06:36:31;815.28;;;756.65;;
31974;SDS011;18500;43.618;1.474;2023-12-22T06:38:57;834.47;;;774.42;;
31974;SDS011;18500;43.618;1.474;2023-12-22T06:41:23;796.40;;;737.10;;
31974;SDS011;18500;43.618;1.474;2023-12-22T06:43:50;722.55;;;670.67;;
31974;SDS011;18500;43.618;1.474;2023-12-22T06:46:16;799.22;;;739.05;;
31974;SDS011;18500;43.618;1.474;2023-12-22T06:48:43;745.40;;;692.22;;
31974;SDS011;18500;43.618;1.474;2023-12-22T06:51:19;859.70;;;797.00;;
31974;SDS011;18500;43.618;1.474;2023-12-22T06:53:46;856.45;;;794.17;;
31974;SDS011;18500;43.618;1.474;2023-12-22T06:56:16;819.78;;;762.10;;
31974;SDS011;18500;43.618;1.474;2023-12-22T06:58:47;808.67;;;751.38;;
31974;SDS011;18500;43.618;1.474;2023-12-22T07:01:25;853.45;;;789.10;;
31974;SDS011;18500;43.618;1.474;2023-12-22T07:03:55;880.92;;;814.45;;
31974;SDS011;18500;43.618;1.474;2023-12-22T07:06:21;886.30;;;818.33;;
31974;SDS011;18500;43.618;1.474;2023-12-22T07:11:46;822.15;;;763.47;;
31974;SDS011;18500;43.618;1.474;2023-12-22T07:14:16;824.67;;;764.77;;
31974;SDS011;18500;43.618;1.474;2023-12-22T07:16:42;816.38;;;757.30;;
31974;SDS011;18500;43.618;1.474;2023-12-22T07:19:08;818.63;;;760.20;;
31974;SDS011;18500;43.618;1.474;2023-12-22T07:21:34;831.20;;;772.55;;
31974;SDS011;18500;43.618;1.474;2023-12-22T07:24:00;864.38;;;801.22;;
31974;SDS011;18500;43.618;1.474;2023-12-22T07:26:26;826.83;;;767.88;;
31974;SDS011;18500;43.618;1.474;2023-12-22T07:28:55;836.05;;;776.15;;
31974;SDS011;18500;43.618;1.474;2023-12-22T07:31:20;890.05;;;824.47;;
31974;SDS011;18500;43.618;1.474;2023-12-22T07:33:46;839.47;;;778.53;;
31974;SDS011;18500;43.618;1.474;2023-12-22T07:36:12;911.42;;;840.30;;
31974;SDS011;18500;43.618;1.474;2023-12-22T07:38:38;858.85;;;795.53;;
31974;SDS011;18500;43.618;1.474;2023-12-22T07:41:07;842.33;;;779.95;;
31974;SDS011;18500;43.618;1.474;2023-12-22T07:43:33;878.50;;;811.20;;
31974;SDS011;18500;43.618;1.474;2023-12-22T07:45:58;836.00;;;774.67;;
31974;SDS011;18500;43.618;1.474;2023-12-22T07:48:24;845.47;;;782.80;;
31974;SDS011;18500;43.618;1.474;2023-12-22T07:50:50;799.97;;;741.83;;
31974;SDS011;18500;43.618;1.474;2023-12-22T07:53:16;812.88;;;752.72;;
31974;SDS011;18500;43.618;1.474;2023-12-22T07:55:42;804.80;;;745.80;;
31974;SDS011;18500;43.618;1.474;2023-12-22T07:58:09;907.75;;;834.53;;
31974;SDS011;18500;43.618;1.474;2023-12-22T08:00:34;945.03;;;867.20;;
31974;SDS011;18500;43.618;1.474;2023-12-22T08:03:00;916.88;;;843.28;;
31974;SDS011;18500;43.618;1.474;2023-12-22T08:05:26;928.63;;;854.33;;
31974;SDS011;18500;43.618;1.474;2023-12-22T08:07:51;839.92;;;778.00;;
31974;SDS011;18500;43.618;1.474;2023-12-22T08:10:17;875.28;;;810.28;;
31974;SDS011;18500;43.618;1.474;2023-12-22T08:12:43;958.58;;;878.70;;
31974;SDS011;18500;43.618;1.474;2023-12-22T08:15:09;962.78;;;881.10;;
31974;SDS011;18500;43.618;1.474;2023-12-22T08:17:45;931.17;;;853.85;;
31974;SDS011;18500;43.618;1.474;2023-12-22T08:20:20;975.45;;;894.65;;
31974;SDS011;18500;43.618;1.474;2023-12-22T08:25:12;853.35;;;786.70;;
31974;SDS011;18500;43.618;1.474;2023-12-22T08:27:38;930.88;;;855.20;;
31974;SDS011;18500;43.618;1.474;2023-12-22T08:30:03;968.88;;;887.35;;
31974;SDS011;18500;43.618;1.474;2023-12-22T08:32:29;963.33;;;883.80;;
31974;SDS011;18500;43.618;1.474;2023-12-22T08:34:55;989.78;;;904.97;;
31974;SDS011;18500;43.618;1.474;2023-12-22T08:37:21;1007.38;;;919.88;;
31974;SDS011;18500;43.618;1.474;2023-12-22T08:39:46;971.78;;;890.70;;
31974;SDS011;18500;43.618;1.474;2023-12-22T08:42:12;988.00;;;904.35;;
31974;SDS011;18500;43.618;1.474;2023-12-22T08:44:37;998.05;;;913.08;;
31974;SDS011;18500;43.618;1.474;2023-12-22T08:47:03;960.30;;;881.40;;
31974;SDS011;18500;43.618;1.474;2023-12-22T08:49:29;930.55;;;856.65;;
31974;SDS011;18500;43.618;1.474;2023-12-22T08:51:54;974.35;;;895.05;;
31974;SDS011;18500;43.618;1.474;2023-12-22T08:54:20;862.22;;;796.20;;
31974;SDS011;18500;43.618;1.474;2023-12-22T08:56:45;912.75;;;838.53;;
31974;SDS011;18500;43.618;1.474;2023-12-22T08:59:11;873.67;;;807.28;;
31974;SDS011;18500;43.618;1.474;2023-12-22T09:01:37;764.17;;;707.65;;
31974;SDS011;18500;43.618;1.474;2023-12-22T09:04:02;888.33;;;821.28;;
31974;SDS011;18500;43.618;1.474;2023-12-22T09:06:28;791.58;;;733.20;;
31974;SDS011;18500;43.618;1.474;2023-12-22T09:08:54;813.65;;;752.28;;
31974;SDS011;18500;43.618;1.474;2023-12-22T09:11:20;822.58;;;762.13;;
31974;SDS011;18500;43.618;1.474;2023-12-22T09:13:46;844.97;;;782.50;;
31974;SDS011;18500;43.618;1.474;2023-12-22T09:16:12;837.38;;;772.63;;
31974;SDS011;18500;43.618;1.474;2023-12-22T09:18:40;803.78;;;743.72;;
31974;SDS011;18500;43.618;1.474;2023-12-22T09:21:07;828.00;;;766.45;;
31974;SDS011;18500;43.618;1.474;2023-12-22T09:23:33;812.80;;;752.55;;
31974;SDS011;18500;43.618;1.474;2023-12-22T09:25:59;853.35;;;790.47;;
31974;SDS011;18500;43.618;1.474;2023-12-22T09:28:24;875.95;;;810.47;;
31974;SDS011;18500;43.618;1.474;2023-12-22T09:30:50;819.92;;;759.90;;
31974;SDS011;18500;43.618;1.474;2023-12-22T09:33:16;788.25;;;729.78;;
31974;SDS011;18500;43.618;1.474;2023-12-22T09:35:42;840.42;;;777.50;;
31974;SDS011;18500;43.618;1.474;2023-12-22T09:38:10;774.55;;;717.47;;
31974;SDS011;18500;43.618;1.474;2023-12-22T09:40:39;845.40;;;781.22;;
31974;SDS011;18500;43.618;1.474;2023-12-22T09:43:08;842.83;;;781.22;;
31974;SDS011;18500;43.618;1.474;2023-12-22T09:45:34;821.75;;;760.95;;
31974;SDS011;18500;43.618;1.474;2023-12-22T09:48:01;851.38;;;782.72;;
31974;SDS011;18500;43.618;1.474;2023-12-22T09:50:28;776.90;;;720.72;;
31974;SDS011;18500;43.618;1.474;2023-12-22T09:52:55;837.05;;;774.63;;
31974;SDS011;18500;43.618;1.474;2023-12-22T09:55:22;816.28;;;756.05;;
31974;SDS011;18500;43.618;1.474;2023-12-22T09:57:48;783.95;;;725.03;;
31974;SDS011;18500;43.618;1.474;2023-12-22T10:00:15;752.80;;;698.70;;
31974;SDS011;18500;43.618;1.474;2023-12-22T10:02:42;851.60;;;789.33;;
31974;SDS011;18500;43.618;1.474;2023-12-22T10:05:10;806.50;;;748.17;;
31974;SDS011;18500;43.618;1.474;2023-12-22T10:07:38;799.40;;;741.55;;
31974;SDS011;18500;43.618;1.474;2023-12-22T10:10:05;759.97;;;704.80;;
31974;SDS011;18500;43.618;1.474;2023-12-22T10:12:33;766.75;;;710.45;;
31974;SDS011;18500;43.618;1.474;2023-12-22T10:15:00;783.83;;;726.13;;
31974;SDS011;18500;43.618;1.474;2023-12-22T10:17:26;765.08;;;709.50;;
31974;SDS011;18500;43.618;1.474;2023-12-22T10:19:52;788.65;;;732.83;;
31974;SDS011;18500;43.618;1.474;2023-12-22T10:22:18;771.90;;;717.30;;
31974;SDS011;18500;43.618;1.474;2023-12-22T10:24:46;839.10;;;776.65;;
31974;SDS011;18500;43.618;1.474;2023-12-22T10:27:12;755.92;;;700.35;;
31974;SDS011;18500;43.618;1.474;2023-12-22T10:29:40;719.13;;;668.85;;
31974;SDS011;18500;43.618;1.474;2023-12-22T10:32:06;810.83;;;750.95;;
31974;SDS011;18500;43.618;1.474;2023-12-22T10:34:37;783.73;;;727.20;;
31974;SDS011;18500;43.618;1.474;2023-12-22T10:37:03;839.17;;;775.25;;
31974;SDS011;18500;43.618;1.474;2023-12-22T10:39:29;814.60;;;754.38;;
31974;SDS011;18500;43.618;1.474;2023-12-22T10:41:56;812.67;;;748.78;;
31974;SDS011;18500;43.618;1.474;2023-12-22T10:44:26;766.63;;;711.55;;
31974;SDS011;18500;43.618;1.474;2023-12-22T10:46:58;857.30;;;792.50;;
31974;SDS011;18500;43.618;1.474;2023-12-22T10:49:25;872.90;;;807.97;;
31974;SDS011;18500;43.618;1.474;2023-12-22T10:51:51;829.10;;;768.50;;
31974;SDS011;18500;43.618;1.474;2023-12-22T10:54:18;831.72;;;771.47;;
31974;SDS011;18500;43.618;1.474;2023-12-22T10:56:44;744.47;;;689.97;;
31974;SDS011;18500;43.618;1.474;2023-12-22T10:59:10;852.70;;;789.72;;
31974;SDS011;18500;43.618;1.474;2023-12-22T11:01:36;818.80;;;758.72;;
31974;SDS011;18500;43.618;1.474;2023-12-22T11:04:13;745.22;;;691.08;;
31974;SDS011;18500;43.618;1.474;2023-12-22T11:06:42;730.17;;;676.95;;
31974;SDS011;18500;43.618;1.474;2023-12-22T11:09:09;848.47;;;785.58;;
31974;SDS011;18500;43.618;1.474;2023-12-22T11:11:36;728.78;;;676.35;;
31974;SDS011;18500;43.618;1.474;2023-12-22T11:14:04;797.08;;;740.15;;
31974;SDS011;18500;43.618;1.474;2023-12-22T11:16:31;855.15;;;791.90;;
31974;SDS011;18500;43.618;1.474;2023-12-22T11:19:02;829.85;;;769.60;;
31974;SDS011;18500;43.618;1.474;2023-12-22T11:21:28;806.92;;;748.35;;
31974;SDS011;18500;43.618;1.474;2023-12-22T11:23:55;843.58;;;782.92;;
31974;SDS011;18500;43.618;1.474;2023-12-22T11:26:22;875.17;;;809.55;;
31974;SDS011;18500;43.618;1.474;2023-12-22T11:28:50;814.15;;;755.78;;
31974;SDS011;18500;43.618;1.474;2023-12-22T11:31:17;836.70;;;773.03;;
31974;SDS011;18500;43.618;1.474;2023-12-22T11:33:44;768.78;;;713.85;;
31974;SDS011;18500;43.618;1.474;2023-12-22T11:36:11;832.78;;;770.38;;
31974;SDS011;18500;43.618;1.474;2023-12-22T11:38:38;827.00;;;766.78;;
31974;SDS011;18500;43.618;1.474;2023-12-22T11:41:09;795.83;;;736.97;;
31974;SDS011;18500;43.618;1.474;2023-12-22T11:43:41;830.22;;;769.65;;
31974;SDS011;18500;43.618;1.474;2023-12-22T11:46:08;793.47;;;733.33;;
31974;SDS011;18500;43.618;1.474;2023-12-22T11:48:34;848.60;;;784.92;;
31974;SDS011;18500;43.618;1.474;2023-12-22T11:51:00;788.85;;;729.55;;
31974;SDS011;18500;43.618;1.474;2023-12-22T11:53:30;787.92;;;729.05;;
31974;SDS011;18500;43.618;1.474;2023-12-22T11:56:02;848.60;;;785.63;;
31974;SDS011;18500;43.618;1.474;2023-12-22T11:58:33;836.80;;;775.65;;
31974;SDS011;18500;43.618;1.474;2023-12-22T12:01:02;832.33;;;768.67;;
31974;SDS011;18500;43.618;1.474;2023-12-22T12:03:31;776.60;;;721.03;;
31974;SDS011;18500;43.618;1.474;2023-12-22T12:09:01;817.47;;;756.90;;
31974;SDS011;18500;43.618;1.474;2023-12-22T12:14:21;821.88;;;760.40;;
31974;SDS011;18500;43.618;1.474;2023-12-22T12:16:53;754.95;;;699.92;;
31974;SDS011;18500;43.618;1.474;2023-12-22T12:19:28;825.17;;;765.95;;
31974;SDS011;18500;43.618;1.474;2023-12-22T12:21:54;838.63;;;777.30;;
31974;SDS011;18500;43.618;1.474;2023-12-22T12:24:20;755.70;;;699.35;;
31974;SDS011;18500;43.618;1.474;2023-12-22T12:26:47;758.97;;;704.47;;
31974;SDS011;18500;43.618;1.474;2023-12-22T12:29:12;758.22;;;704.25;;
31974;SDS011;18500;43.618;1.474;2023-12-22T12:31:38;779.92;;;724.22;;
31974;SDS011;18500;43.618;1.474;2023-12-22T12:34:07;792.45;;;731.15;;
31974;SDS011;18500;43.618;1.474;2023-12-22T12:36:35;744.63;;;691.08;;
31974;SDS011;18500;43.618;1.474;2023-12-22T12:39:06;816.50;;;757.65;;
31974;SDS011;18500;43.618;1.474;2023-12-22T12:41:36;771.95;;;716.97;;
31974;SDS011;18500;43.618;1.474;2023-12-22T12:44:07;781.42;;;726.20;;
31974;SDS011;18500;43.618;1.474;2023-12-22T12:46:34;773.83;;;716.13;;
31974;SDS011;18500;43.618;1.474;2023-12-22T12:49:04;813.35;;;753.65;;
31974;SDS011;18500;43.618;1.474;2023-12-22T12:51:37;819.63;;;759.20;;
31974;SDS011;18500;43.618;1.474;2023-12-22T12:54:04;757.03;;;701.42;;
31974;SDS011;18500;43.618;1.474;2023-12-22T12:56:43;829.58;;;770.45;;
31974;SDS011;18500;43.618;1.474;2023-12-22T12:59:10;759.20;;;705.40;;
31974;SDS011;18500;43.618;1.474;2023-12-22T13:01:45;770.47;;;715.22;;
31974;SDS011;18500;43.618;1.474;2023-12-22T13:04:13;819.38;;;759.72;;
31974;SDS011;18500;43.618;1.474;2023-12-22T13:06:45;780.83;;;720.28;;
31974;SDS011;18500;43.618;1.474;2023-12-22T13:09:11;750.25;;;696.38;;
31974;SDS011;18500;43.618;1.474;2023-12-22T13:11:40;749.90;;;696.10;;
31974;SDS011;18500;43.618;1.474;2023-12-22T13:14:09;749.83;;;695.90;;
31974;SDS011;18500;43.618;1.474;2023-12-22T13:16:35;829.90;;;768.75;;
31974;SDS011;18500;43.618;1.474;2023-12-22T13:19:02;768.05;;;712.15;;
31974;SDS011;18500;43.618;1.474;2023-12-22T13:21:28;807.72;;;747.97;;
31974;SDS011;18500;43.618;1.474;2023-12-22T13:24:10;765.97;;;711.33;;
31974;SDS011;18500;43.618;1.474;2023-12-22T13:26:37;741.95;;;689.88;;
31974;SDS011;18500;43.618;1.474;2023-12-22T13:29:03;778.05;;;721.92;;
31974;SDS011;18500;43.618;1.474;2023-12-22T13:31:33;757.05;;;702.10;;
31974;SDS011;18500;43.618;1.474;2023-12-22T13:34:01;688.30;;;640.33;;
31974;SDS011;18500;43.618;1.474;2023-12-22T13:36:27;769.72;;;712.75;;
31974;SDS011;18500;43.618;1.474;2023-12-22T13:38:53;822.08;;;758.83;;
31974;SDS011;18500;43.618;1.474;2023-12-22T13:41:19;737.92;;;683.47;;
31974;SDS011;18500;43.618;1.474;2023-12-22T13:43:44;824.90;;;760.25;;
31974;SDS011;18500;43.618;1.474;2023-12-22T13:46:11;751.03;;;696.70;;
31974;SDS011;18500;43.618;1.474;2023-12-22T13:48:37;746.80;;;691.28;;
31974;SDS011;18500;43.618;1.474;2023-12-22T13:51:03;838.78;;;774.35;;
31974;SDS011;18500;43.618;1.474;2023-12-22T13:53:29;753.90;;;698.67;;
31974;SDS011;18500;43.618;1.474;2023-12-22T13:55:58;759.28;;;704.35;;
31974;SDS011;18500;43.618;1.474;2023-12-22T13:58:25;743.85;;;691.25;;
31974;SDS011;18500;43.618;1.474;2023-12-22T14:00:51;791.55;;;732.58;;
31974;SDS011;18500;43.618;1.474;2023-12-22T14:03:17;783.28;;;725.85;;
31974;SDS011;18500;43.618;1.474;2023-12-22T14:05:50;808.45;;;748.35;;